createdAt,value
2023-01-13T00:04:32.513Z,989.15
2023-01-13T00:09:32.383Z,989.17
2023-01-13T00:14:32.342Z,989.24
2023-01-13T00:19:32.369Z,989.05
2023-01-13T00:24:32.316Z,989.13
2023-01-13T00:29:32.243Z,989.09
2023-01-13T00:34:32.120Z,989.05
2023-01-13T00:39:32.044Z,989.02
2023-01-13T00:44:31.994Z,989.03
2023-01-13T00:49:32.112Z,989.11
2023-01-13T00:54:32.037Z,989.16
2023-01-13T00:59:31.835Z,989.13
2023-01-13T01:04:31.759Z,989.22
2023-01-13T01:09:31.710Z,989.15
2023-01-13T01:14:31.813Z,989.23
2023-01-13T01:19:31.667Z,989.23
2023-01-13T01:24:31.537Z,989.19
2023-01-13T01:29:31.518Z,989.06
2023-01-13T01:34:31.421Z,989.22
2023-01-13T01:39:31.368Z,989.21
2023-01-13T01:44:31.307Z,989.51
2023-01-13T01:49:31.247Z,989.41
2023-01-13T01:54:31.185Z,989.21
2023-01-13T01:59:31.149Z,989.08
2023-01-13T02:04:31.091Z,989.37
2023-01-13T02:09:31.037Z,989.43
2023-01-13T02:14:30.975Z,989.42
2023-01-13T02:19:32.052Z,989.36
2023-01-13T02:24:30.858Z,989.44
2023-01-13T02:29:31.002Z,989.44
2023-01-13T02:34:30.956Z,989.46
2023-01-13T02:39:30.759Z,989.47
2023-01-13T02:44:30.628Z,989.36
2023-01-13T02:49:30.577Z,989.45
2023-01-13T02:54:30.540Z,989.39
2023-01-13T02:59:30.465Z,989.47
2023-01-13T03:04:30.576Z,989.40
2023-01-13T03:09:30.368Z,989.41
2023-01-13T03:14:30.457Z,989.45
2023-01-13T03:19:31.449Z,989.42
2023-01-13T03:24:30.418Z,989.41
2023-01-13T03:29:30.281Z,989.36
2023-01-13T03:34:31.228Z,989.19
2023-01-13T03:39:30.064Z,989.12
2023-01-13T03:44:31.956Z,989.26
2023-01-13T03:49:29.947Z,989.23
2023-01-13T03:54:30.096Z,989.15
2023-01-13T03:59:29.894Z,989.19
2023-01-13T04:04:29.883Z,989.21
2023-01-13T04:09:29.803Z,989.17
2023-01-13T04:14:33.117Z,989.30
2023-01-13T04:19:29.612Z,989.21
2023-01-13T04:24:29.568Z,989.26
2023-01-13T04:29:29.522Z,989.19
2023-01-13T04:34:29.433Z,989.31
2023-01-13T04:39:29.363Z,989.32
2023-01-13T04:44:29.322Z,989.14
2023-01-13T04:49:29.277Z,989.27
2023-01-13T04:54:29.228Z,989.33
2023-01-13T04:59:30.316Z,989.25
2023-01-13T05:04:29.287Z,989.41
2023-01-13T05:09:29.166Z,989.32
2023-01-13T05:14:29.124Z,989.29
2023-01-13T05:19:29.058Z,989.08
2023-01-13T05:24:28.915Z,988.97
2023-01-13T05:29:28.964Z,989.15
2023-01-13T05:34:28.793Z,989.35
2023-01-13T05:39:28.724Z,989.43
2023-01-13T05:44:28.701Z,989.37
2023-01-13T05:49:28.603Z,989.39
2023-01-13T05:54:28.577Z,989.40
2023-01-13T05:59:28.630Z,989.18
2023-01-13T06:04:28.474Z,989.21
2023-01-13T06:09:28.399Z,989.21
2023-01-13T06:14:28.526Z,989.16
2023-01-13T06:19:28.429Z,989.22
2023-01-13T06:24:28.222Z,989.24
2023-01-13T06:29:28.315Z,989.33
2023-01-13T06:34:28.173Z,989.31
2023-01-13T06:39:28.029Z,989.44
2023-01-13T06:44:27.997Z,989.44
2023-01-13T06:49:27.985Z,989.39
2023-01-13T06:54:27.973Z,989.50
2023-01-13T06:59:27.852Z,989.42
2023-01-13T07:04:27.777Z,989.48
2023-01-13T07:09:27.826Z,989.57
2023-01-13T07:14:27.678Z,989.61
2023-01-13T07:19:27.623Z,989.70
2023-01-13T07:24:27.578Z,989.63
2023-01-13T07:29:28.631Z,989.71
2023-01-13T07:34:27.439Z,989.67
2023-01-13T07:39:27.490Z,989.71
2023-01-13T07:44:27.345Z,989.82
2023-01-13T07:49:28.363Z,989.90
2023-01-13T07:54:39.737Z,990.00
2023-01-13T07:59:28.176Z,990.01
2023-01-13T08:04:27.128Z,990.03
2023-01-13T08:09:27.092Z,990.05
2023-01-13T08:14:27.041Z,990.08
2023-01-13T08:19:26.961Z,990.12
2023-01-13T08:24:26.909Z,990.24
2023-01-13T08:29:26.843Z,990.32
2023-01-13T08:34:26.820Z,990.45
2023-01-13T08:39:26.734Z,990.47
2023-01-13T08:44:26.706Z,990.40
2023-01-13T08:49:26.663Z,990.56
2023-01-13T08:54:26.559Z,990.51
2023-01-13T08:59:26.528Z,990.62
2023-01-13T09:04:26.551Z,990.63
2023-01-13T09:09:26.431Z,990.72
2023-01-13T09:14:26.339Z,990.68
2023-01-13T09:19:26.286Z,990.68
2023-01-13T09:24:26.238Z,990.46
2023-01-13T09:29:26.192Z,990.61
2023-01-13T09:34:26.205Z,990.76
2023-01-13T09:39:26.067Z,990.72
2023-01-13T09:44:26.039Z,990.62
2023-01-13T09:49:26.021Z,990.68
2023-01-13T09:54:25.997Z,990.86
2023-01-13T09:59:26.001Z,990.76
2023-01-13T10:04:26.951Z,990.79
2023-01-13T10:09:25.847Z,990.89
2023-01-13T10:14:25.734Z,990.83
2023-01-13T10:19:25.708Z,990.90
2023-01-13T10:24:25.648Z,990.92
2023-01-13T10:29:25.721Z,990.90
2023-01-13T10:34:25.568Z,990.89
2023-01-13T10:39:25.415Z,990.93
2023-01-13T10:44:25.434Z,991.01
2023-01-13T10:49:25.352Z,990.74
2023-01-13T10:54:25.295Z,990.82
2023-01-13T10:59:25.232Z,990.97
2023-01-13T11:04:25.179Z,990.89
2023-01-13T11:09:25.073Z,990.89
2023-01-13T11:14:25.035Z,990.88
2023-01-13T11:19:24.980Z,990.85
2023-01-13T11:24:24.913Z,990.62
2023-01-13T11:29:24.889Z,990.89
2023-01-13T11:34:24.848Z,990.85
2023-01-13T11:39:24.739Z,991.06
2023-01-13T11:44:24.720Z,991.02
2023-01-13T11:49:24.665Z,991.14
2023-01-13T11:54:24.617Z,991.11
2023-01-13T11:59:24.531Z,990.95
2023-01-13T12:04:24.487Z,991.02
2023-01-13T12:09:24.430Z,991.02
2023-01-13T12:14:24.378Z,991.19
2023-01-13T12:19:24.338Z,991.18
2023-01-13T12:24:24.237Z,991.24
2023-01-13T12:29:24.198Z,991.44
2023-01-13T12:34:24.165Z,991.62
2023-01-13T12:39:24.125Z,991.87
2023-01-13T12:44:24.029Z,991.73
2023-01-13T12:49:24.049Z,992.04
2023-01-13T12:54:23.939Z,991.91
2023-01-13T12:59:23.890Z,992.00
2023-01-13T13:04:23.831Z,991.86
2023-01-13T13:09:23.777Z,991.79
2023-01-13T13:14:23.717Z,992.01
2023-01-13T13:19:23.644Z,992.02
2023-01-13T13:24:23.623Z,992.10
2023-01-13T13:29:23.550Z,992.12
2023-01-13T13:34:23.509Z,992.24
2023-01-13T13:39:23.420Z,992.21
2023-01-13T13:44:23.385Z,992.31
2023-01-13T13:49:23.319Z,992.22
2023-01-13T13:54:23.293Z,992.40
2023-01-13T13:59:23.234Z,992.62
2023-01-13T14:04:23.216Z,992.67
2023-01-13T14:09:23.092Z,992.72
2023-01-13T14:14:22.996Z,992.84
2023-01-13T14:19:22.948Z,992.95
2023-01-13T14:24:22.893Z,993.10
2023-01-13T14:29:22.854Z,993.16
2023-01-13T14:34:31.017Z,993.20
2023-01-13T14:39:23.738Z,993.24
2023-01-13T14:44:22.662Z,993.34
2023-01-13T14:49:22.587Z,993.56
2023-01-13T14:54:24.577Z,993.70
2023-01-13T14:59:22.491Z,993.66
2023-01-13T15:04:22.412Z,993.67
2023-01-13T15:09:22.377Z,993.64
2023-01-13T15:14:22.437Z,993.68
2023-01-13T15:19:22.251Z,993.83
2023-01-13T15:24:22.188Z,993.91
2023-01-13T15:29:24.377Z,994.16
2023-01-13T15:34:22.137Z,994.13
2023-01-13T15:39:22.137Z,994.28
2023-01-13T15:44:22.051Z,994.36
2023-01-13T15:49:21.962Z,994.42
2023-01-13T15:54:22.207Z,994.53
2023-01-13T15:59:21.821Z,994.74
2023-01-13T16:04:21.791Z,994.79
2023-01-13T16:09:21.711Z,994.78
2023-01-13T16:14:21.650Z,994.85
2023-01-13T16:19:21.632Z,994.97
2023-01-13T16:24:21.550Z,995.00
2023-01-13T16:29:21.525Z,995.06
2023-01-13T16:34:21.483Z,995.05
2023-01-13T16:39:21.437Z,995.14
2023-01-13T16:44:21.366Z,995.29
2023-01-13T16:49:21.339Z,995.31
2023-01-13T16:54:21.321Z,995.43
2023-01-13T16:59:21.252Z,995.56
2023-01-13T17:04:21.206Z,995.68
2023-01-13T17:09:21.208Z,995.62
2023-01-13T17:14:21.103Z,995.74
2023-01-13T17:19:21.103Z,995.94
2023-01-13T17:24:20.983Z,995.98
2023-01-13T17:29:20.953Z,995.94
2023-01-13T17:34:20.890Z,995.91
2023-01-13T17:39:20.900Z,996.09
2023-01-13T17:44:20.884Z,996.06
2023-01-13T17:49:20.695Z,996.03
2023-01-13T17:54:20.634Z,996.13
2023-01-13T17:59:20.559Z,996.08
2023-01-13T18:04:20.658Z,996.08
2023-01-13T18:09:20.476Z,996.29
2023-01-13T18:14:20.412Z,996.46
2023-01-13T18:19:20.354Z,996.41
2023-01-13T18:24:20.304Z,996.54
2023-01-13T18:29:20.297Z,996.54
2023-01-13T18:34:20.230Z,996.51
2023-01-13T18:39:20.160Z,996.62
2023-01-13T18:44:20.064Z,996.63
2023-01-13T18:49:20.060Z,996.66
2023-01-13T18:54:19.968Z,996.64
2023-01-13T18:59:19.928Z,996.76
2023-01-13T19:04:19.856Z,996.79
2023-01-13T19:09:19.819Z,996.92
2023-01-13T19:14:19.768Z,997.03
2023-01-13T19:19:20.848Z,996.96
2023-01-13T19:24:19.618Z,997.09
2023-01-13T19:29:19.670Z,997.23
2023-01-13T19:34:19.588Z,997.11
2023-01-13T19:39:19.484Z,997.15
2023-01-13T19:44:19.509Z,997.27
2023-01-13T19:49:20.374Z,997.36
2023-01-13T19:54:19.286Z,997.43
2023-01-13T19:59:19.226Z,997.47
2023-01-13T20:04:19.195Z,997.56
2023-01-13T20:09:19.154Z,997.64
2023-01-13T20:14:19.055Z,997.60
2023-01-13T20:19:19.004Z,997.76
2023-01-13T20:24:19.014Z,997.92
2023-01-13T20:29:18.990Z,997.87
2023-01-13T20:34:19.916Z,997.93
2023-01-13T20:39:18.963Z,997.96
2023-01-13T20:44:18.743Z,998.04
2023-01-13T20:49:18.693Z,998.08
2023-01-13T20:54:18.656Z,998.20
2023-01-13T20:59:18.606Z,998.23
2023-01-13T21:04:18.508Z,998.36
2023-01-13T21:09:18.576Z,998.41
2023-01-13T21:14:18.425Z,998.52
2023-01-13T21:19:18.454Z,998.57
2023-01-13T21:24:18.389Z,998.54
2023-01-13T21:29:18.277Z,998.55
2023-01-13T21:34:18.220Z,998.62
2023-01-13T21:39:18.263Z,998.61
2023-01-13T21:44:18.211Z,998.64
2023-01-13T21:49:18.067Z,998.72
2023-01-13T21:54:17.965Z,998.76
2023-01-13T21:59:17.973Z,998.81
2023-01-13T22:04:17.939Z,998.85
2023-01-13T22:09:17.840Z,998.88
2023-01-13T22:14:17.754Z,998.96
2023-01-13T22:19:17.730Z,998.92
2023-01-13T22:24:17.656Z,999.04
2023-01-13T22:29:17.606Z,999.11
2023-01-13T22:34:17.631Z,999.19
2023-01-13T22:39:17.534Z,999.19
2023-01-13T22:44:17.487Z,999.28
2023-01-13T22:49:17.397Z,999.43
2023-01-13T22:54:17.373Z,999.45
2023-01-13T22:59:17.268Z,999.62
2023-01-13T23:04:17.288Z,999.63
2023-01-13T23:09:17.157Z,999.64
2023-01-13T23:14:17.103Z,999.65
2023-01-13T23:19:17.061Z,999.68
2023-01-13T23:24:16.974Z,999.73
2023-01-13T23:29:16.957Z,999.72
2023-01-13T23:34:16.937Z,999.80
2023-01-13T23:39:16.843Z,999.84
2023-01-13T23:44:16.761Z,999.85
2023-01-13T23:49:16.877Z,999.73
2023-01-13T23:54:16.660Z,999.75
2023-01-13T23:59:16.743Z,999.68
